sensor_id;sensor_type;location;lat;lon;timestamp;temperature;humidity
59651;DHT22;45954;49.768;8.636;2023-09-30T00:00:44;18.20;99.90
59651;DHT22;45954;49.768;8.636;2023-09-30T00:03:11;18.20;99.90
59651;DHT22;45954;49.768;8.636;2023-09-30T00:05:37;18.20;99.90
59651;DHT22;45954;49.768;8.636;2023-09-30T00:08:06;18.20;99.90
59651;DHT22;45954;49.768;8.636;2023-09-30T00:10:32;18.20;99.90
59651;DHT22;45954;49.768;8.636;2023-09-30T00:12:58;18.20;99.90
59651;DHT22;45954;49.768;8.636;2023-09-30T00:15:27;18.10;99.90
59651;DHT22;45954;49.768;8.636;2023-09-30T00:17:53;17.90;99.90
59651;DHT22;45954;49.768;8.636;2023-09-30T00:20:19;17.80;99.90
59651;DHT22;45954;49.768;8.636;2023-09-30T00:22:45;17.80;99.90
59651;DHT22;45954;49.768;8.636;2023-09-30T00:25:11;17.70;99.90
59651;DHT22;45954;49.768;8.636;2023-09-30T00:27:37;17.80;99.90
59651;DHT22;45954;49.768;8.636;2023-09-30T00:30:03;17.70;99.90
59651;DHT22;45954;49.768;8.636;2023-09-30T00:32:32;17.70;99.90
59651;DHT22;45954;49.768;8.636;2023-09-30T00:35:01;17.60;99.90
59651;DHT22;45954;49.768;8.636;2023-09-30T00:37:27;17.50;99.90
59651;DHT22;45954;49.768;8.636;2023-09-30T00:39:53;17.50;99.90
59651;DHT22;45954;49.768;8.636;2023-09-30T00:42:19;17.50;99.90
59651;DHT22;45954;49.768;8.636;2023-09-30T00:44:46;17.60;99.90
59651;DHT22;45954;49.768;8.636;2023-09-30T00:47:14;17.50;99.90
59651;DHT22;45954;49.768;8.636;2023-09-30T00:49:43;17.60;99.90
59651;DHT22;45954;49.768;8.636;2023-09-30T00:52:12;17.70;99.90
59651;DHT22;45954;49.768;8.636;2023-09-30T00:54:39;17.60;99.90
59651;DHT22;45954;49.768;8.636;2023-09-30T00:57:06;17.50;99.90
59651;DHT22;45954;49.768;8.636;2023-09-30T00:59:32;17.50;99.90
59651;DHT22;45954;49.768;8.636;2023-09-30T01:01:59;17.50;99.90
59651;DHT22;45954;49.768;8.636;2023-09-30T01:04:27;17.60;99.90
59651;DHT22;45954;49.768;8.636;2023-09-30T01:06:53;17.60;99.90
59651;DHT22;45954;49.768;8.636;2023-09-30T01:09:20;17.60;99.90
59651;DHT22;45954;49.768;8.636;2023-09-30T01:11:46;17.50;99.90
59651;DHT22;45954;49.768;8.636;2023-09-30T01:14:32;17.30;99.90
59651;DHT22;45954;49.768;8.636;2023-09-30T01:17:04;17.40;99.90
59651;DHT22;45954;49.768;8.636;2023-09-30T01:19:34;17.40;99.90
59651;DHT22;45954;49.768;8.636;2023-09-30T01:22:00;17.30;99.90
59651;DHT22;45954;49.768;8.636;2023-09-30T01:24:37;17.30;99.90
59651;DHT22;45954;49.768;8.636;2023-09-30T01:27:07;17.50;99.90
59651;DHT22;45954;49.768;8.636;2023-09-30T01:29:36;17.40;99.90
59651;DHT22;45954;49.768;8.636;2023-09-30T01:32:04;17.40;99.90
59651;DHT22;45954;49.768;8.636;2023-09-30T01:34:34;17.30;99.90
59651;DHT22;45954;49.768;8.636;2023-09-30T01:37:01;17.10;99.90
59651;DHT22;45954;49.768;8.636;2023-09-30T01:39:27;17.10;99.90
59651;DHT22;45954;49.768;8.636;2023-09-30T01:41:53;17.30;99.90
59651;DHT22;45954;49.768;8.636;2023-09-30T01:44:19;17.40;99.90
59651;DHT22;45954;49.768;8.636;2023-09-30T01:46:45;17.30;99.90
59651;DHT22;45954;49.768;8.636;2023-09-30T01:49:11;17.20;99.90
59651;DHT22;45954;49.768;8.636;2023-09-30T01:51:37;17.30;99.90
59651;DHT22;45954;49.768;8.636;2023-09-30T01:54:03;17.40;99.90
59651;DHT22;45954;49.768;8.636;2023-09-30T01:56:30;17.40;99.90
59651;DHT22;45954;49.768;8.636;2023-09-30T01:58:57;17.60;99.90
59651;DHT22;45954;49.768;8.636;2023-09-30T02:01:23;17.50;99.90
59651;DHT22;45954;49.768;8.636;2023-09-30T02:03:49;17.60;99.90
59651;DHT22;45954;49.768;8.636;2023-09-30T02:06:15;17.50;99.90
59651;DHT22;45954;49.768;8.636;2023-09-30T02:08:41;17.30;99.90
59651;DHT22;45954;49.768;8.636;2023-09-30T02:11:07;17.40;99.90
59651;DHT22;45954;49.768;8.636;2023-09-30T02:13:33;17.40;99.90
59651;DHT22;45954;49.768;8.636;2023-09-30T02:16:03;17.40;99.90
59651;DHT22;45954;49.768;8.636;2023-09-30T02:18:28;17.40;99.90
59651;DHT22;45954;49.768;8.636;2023-09-30T02:20:58;17.50;99.90
59651;DHT22;45954;49.768;8.636;2023-09-30T02:23:25;17.40;99.90
59651;DHT22;45954;49.768;8.636;2023-09-30T02:25:51;17.30;99.90
59651;DHT22;45954;49.768;8.636;2023-09-30T02:28:17;17.20;99.90
59651;DHT22;45954;49.768;8.636;2023-09-30T02:30:43;17.20;99.90
59651;DHT22;45954;49.768;8.636;2023-09-30T02:33:09;17.10;99.90
59651;DHT22;45954;49.768;8.636;2023-09-30T02:35:36;17.00;99.90
59651;DHT22;45954;49.768;8.636;2023-09-30T02:38:04;17.10;99.90
59651;DHT22;45954;49.768;8.636;2023-09-30T02:40:30;17.20;99.90
59651;DHT22;45954;49.768;8.636;2023-09-30T02:42:56;16.90;99.90
59651;DHT22;45954;49.768;8.636;2023-09-30T02:45:22;16.80;99.90
59651;DHT22;45954;49.768;8.636;2023-09-30T02:47:48;17.00;99.90
59651;DHT22;45954;49.768;8.636;2023-09-30T02:50:14;17.10;99.90
59651;DHT22;45954;49.768;8.636;2023-09-30T02:52:40;17.00;99.90
59651;DHT22;45954;49.768;8.636;2023-09-30T02:55:11;17.00;99.90
59651;DHT22;45954;49.768;8.636;2023-09-30T02:57:38;17.10;99.90
59651;DHT22;45954;49.768;8.636;2023-09-30T03:00:10;17.10;99.90
59651;DHT22;45954;49.768;8.636;2023-09-30T03:02:59;17.10;99.90
59651;DHT22;45954;49.768;8.636;2023-09-30T03:05:25;17.00;99.90
59651;DHT22;45954;49.768;8.636;2023-09-30T03:07:52;17.00;99.90
59651;DHT22;45954;49.768;8.636;2023-09-30T03:10:22;16.90;99.90
59651;DHT22;45954;49.768;8.636;2023-09-30T03:12:50;17.00;99.90
59651;DHT22;45954;49.768;8.636;2023-09-30T03:15:16;17.10;99.90
59651;DHT22;45954;49.768;8.636;2023-09-30T03:17:42;17.30;99.90
59651;DHT22;45954;49.768;8.636;2023-09-30T03:20:09;17.20;99.90
59651;DHT22;45954;49.768;8.636;2023-09-30T03:22:41;17.10;99.90
59651;DHT22;45954;49.768;8.636;2023-09-30T03:25:11;17.10;99.90
59651;DHT22;45954;49.768;8.636;2023-09-30T03:27:37;17.20;99.90
59651;DHT22;45954;49.768;8.636;2023-09-30T03:30:04;17.10;99.90
59651;DHT22;45954;49.768;8.636;2023-09-30T03:32:35;17.10;99.90
59651;DHT22;45954;49.768;8.636;2023-09-30T03:35:21;17.00;99.90
59651;DHT22;45954;49.768;8.636;2023-09-30T03:37:49;16.90;99.90
59651;DHT22;45954;49.768;8.636;2023-09-30T03:40:16;16.80;99.90
59651;DHT22;45954;49.768;8.636;2023-09-30T03:42:46;16.60;99.90
59651;DHT22;45954;49.768;8.636;2023-09-30T03:45:15;16.60;99.90
59651;DHT22;45954;49.768;8.636;2023-09-30T03:47:42;16.70;99.90
59651;DHT22;45954;49.768;8.636;2023-09-30T03:50:09;16.60;99.90
59651;DHT22;45954;49.768;8.636;2023-09-30T03:52:41;16.60;99.90
59651;DHT22;45954;49.768;8.636;2023-09-30T03:55:13;16.50;99.90
59651;DHT22;45954;49.768;8.636;2023-09-30T03:57:41;16.50;99.90
59651;DHT22;45954;49.768;8.636;2023-09-30T04:00:10;16.60;99.90
59651;DHT22;45954;49.768;8.636;2023-09-30T04:02:42;16.70;99.90
59651;DHT22;45954;49.768;8.636;2023-09-30T04:05:09;16.80;99.90
59651;DHT22;45954;49.768;8.636;2023-09-30T04:07:37;16.60;99.90
59651;DHT22;45954;49.768;8.636;2023-09-30T04:10:03;16.50;99.90
59651;DHT22;45954;49.768;8.636;2023-09-30T04:12:33;16.40;99.90
59651;DHT22;45954;49.768;8.636;2023-09-30T04:14:59;16.40;99.90
59651;DHT22;45954;49.768;8.636;2023-09-30T04:17:26;16.40;99.90
59651;DHT22;45954;49.768;8.636;2023-09-30T04:19:53;16.30;99.90
59651;DHT22;45954;49.768;8.636;2023-09-30T04:22:19;16.30;99.90
59651;DHT22;45954;49.768;8.636;2023-09-30T04:24:46;16.30;99.90
59651;DHT22;45954;49.768;8.636;2023-09-30T04:27:14;16.20;99.90
59651;DHT22;45954;49.768;8.636;2023-09-30T04:29:40;16.30;99.90
59651;DHT22;45954;49.768;8.636;2023-09-30T04:32:06;16.20;99.90
59651;DHT22;45954;49.768;8.636;2023-09-30T04:34:33;16.20;99.90
59651;DHT22;45954;49.768;8.636;2023-09-30T04:36:58;16.20;99.90
59651;DHT22;45954;49.768;8.636;2023-09-30T04:39:28;16.10;99.90
59651;DHT22;45954;49.768;8.636;2023-09-30T04:41:53;16.10;99.90
59651;DHT22;45954;49.768;8.636;2023-09-30T04:44:20;16.10;99.90
59651;DHT22;45954;49.768;8.636;2023-09-30T04:46:48;16.10;99.90
59651;DHT22;45954;49.768;8.636;2023-09-30T04:49:14;16.00;99.90
59651;DHT22;45954;49.768;8.636;2023-09-30T04:51:41;16.00;99.90
59651;DHT22;45954;49.768;8.636;2023-09-30T04:54:09;16.10;99.90
59651;DHT22;45954;49.768;8.636;2023-09-30T04:56:36;16.10;99.90
59651;DHT22;45954;49.768;8.636;2023-09-30T04:59:02;16.00;99.90
59651;DHT22;45954;49.768;8.636;2023-09-30T05:01:30;15.90;99.90
59651;DHT22;45954;49.768;8.636;2023-09-30T05:03:56;16.00;99.90
59651;DHT22;45954;49.768;8.636;2023-09-30T05:06:23;16.10;99.90
59651;DHT22;45954;49.768;8.636;2023-09-30T05:08:49;16.00;99.90
59651;DHT22;45954;49.768;8.636;2023-09-30T05:11:15;16.10;99.90
59651;DHT22;45954;49.768;8.636;2023-09-30T05:13:41;16.10;99.90
59651;DHT22;45954;49.768;8.636;2023-09-30T05:16:07;15.90;99.90
59651;DHT22;45954;49.768;8.636;2023-09-30T05:18:36;15.90;99.90
59651;DHT22;45954;49.768;8.636;2023-09-30T05:21:03;15.90;99.90
59651;DHT22;45954;49.768;8.636;2023-09-30T05:23:29;15.90;99.90
59651;DHT22;45954;49.768;8.636;2023-09-30T05:25:56;15.80;99.90
59651;DHT22;45954;49.768;8.636;2023-09-30T05:28:22;15.80;99.90
59651;DHT22;45954;49.768;8.636;2023-09-30T05:30:48;15.90;99.90
59651;DHT22;45954;49.768;8.636;2023-09-30T05:33:16;16.10;99.90
59651;DHT22;45954;49.768;8.636;2023-09-30T05:35:42;16.10;99.90
59651;DHT22;45954;49.768;8.636;2023-09-30T05:38:08;16.30;99.90
59651;DHT22;45954;49.768;8.636;2023-09-30T05:40:34;16.30;99.90
59651;DHT22;45954;49.768;8.636;2023-09-30T05:43:00;16.30;99.90
59651;DHT22;45954;49.768;8.636;2023-09-30T05:45:33;16.50;99.90
59651;DHT22;45954;49.768;8.636;2023-09-30T05:48:02;16.40;99.90
59651;DHT22;45954;49.768;8.636;2023-09-30T05:50:35;16.20;99.90
59651;DHT22;45954;49.768;8.636;2023-09-30T05:53:02;16.20;99.90
59651;DHT22;45954;49.768;8.636;2023-09-30T05:55:30;16.20;99.90
59651;DHT22;45954;49.768;8.636;2023-09-30T05:57:56;16.30;99.90
59651;DHT22;45954;49.768;8.636;2023-09-30T06:00:25;16.20;99.90
59651;DHT22;45954;49.768;8.636;2023-09-30T06:02:57;16.20;99.90
59651;DHT22;45954;49.768;8.636;2023-09-30T06:05:23;16.30;99.90
59651;DHT22;45954;49.768;8.636;2023-09-30T06:07:52;16.40;99.90
59651;DHT22;45954;49.768;8.636;2023-09-30T06:10:19;16.20;99.90
59651;DHT22;45954;49.768;8.636;2023-09-30T06:12:49;16.40;99.90
59651;DHT22;45954;49.768;8.636;2023-09-30T06:15:20;16.60;99.90
59651;DHT22;45954;49.768;8.636;2023-09-30T06:17:52;16.70;99.90
59651;DHT22;45954;49.768;8.636;2023-09-30T06:20:19;16.70;99.90
59651;DHT22;45954;49.768;8.636;2023-09-30T06:22:48;16.60;99.90
59651;DHT22;45954;49.768;8.636;2023-09-30T06:25:20;16.50;99.90
59651;DHT22;45954;49.768;8.636;2023-09-30T06:27:48;16.40;99.90
59651;DHT22;45954;49.768;8.636;2023-09-30T06:30:15;16.20;99.90
59651;DHT22;45954;49.768;8.636;2023-09-30T06:32:45;16.00;99.90
59651;DHT22;45954;49.768;8.636;2023-09-30T06:35:12;16.00;99.90
59651;DHT22;45954;49.768;8.636;2023-09-30T06:37:41;16.20;99.90
59651;DHT22;45954;49.768;8.636;2023-09-30T06:40:12;16.50;99.90
59651;DHT22;45954;49.768;8.636;2023-09-30T06:42:38;16.70;99.90
59651;DHT22;45954;49.768;8.636;2023-09-30T06:45:06;16.70;99.90
59651;DHT22;45954;49.768;8.636;2023-09-30T06:47:41;16.50;99.90
59651;DHT22;45954;49.768;8.636;2023-09-30T06:50:12;16.60;99.90
59651;DHT22;45954;49.768;8.636;2023-09-30T06:52:43;16.80;99.90
59651;DHT22;45954;49.768;8.636;2023-09-30T06:55:11;16.90;99.90
59651;DHT22;45954;49.768;8.636;2023-09-30T06:57:40;17.10;99.90
59651;DHT22;45954;49.768;8.636;2023-09-30T07:00:11;17.40;99.90
59651;DHT22;45954;49.768;8.636;2023-09-30T07:02:39;17.40;99.90
59651;DHT22;45954;49.768;8.636;2023-09-30T07:05:13;17.40;99.90
59651;DHT22;45954;49.768;8.636;2023-09-30T07:07:43;17.50;99.90
59651;DHT22;45954;49.768;8.636;2023-09-30T07:10:09;17.60;99.90
59651;DHT22;45954;49.768;8.636;2023-09-30T07:12:37;17.60;99.90
59651;DHT22;45954;49.768;8.636;2023-09-30T07:15:04;17.60;99.90
59651;DHT22;45954;49.768;8.636;2023-09-30T07:17:34;17.60;99.90
59651;DHT22;45954;49.768;8.636;2023-09-30T07:20:04;17.60;99.90
59651;DHT22;45954;49.768;8.636;2023-09-30T07:22:31;17.50;99.90
59651;DHT22;45954;49.768;8.636;2023-09-30T07:24:57;17.40;99.90
59651;DHT22;45954;49.768;8.636;2023-09-30T07:27:24;18.00;99.90
59651;DHT22;45954;49.768;8.636;2023-09-30T07:29:50;17.80;99.90
59651;DHT22;45954;49.768;8.636;2023-09-30T07:32:16;17.70;99.90
59651;DHT22;45954;49.768;8.636;2023-09-30T07:34:42;17.40;99.90
59651;DHT22;45954;49.768;8.636;2023-09-30T07:37:08;17.70;99.90
59651;DHT22;45954;49.768;8.636;2023-09-30T07:39:35;17.80;99.90
59651;DHT22;45954;49.768;8.636;2023-09-30T07:42:01;17.60;99.90
59651;DHT22;45954;49.768;8.636;2023-09-30T07:44:27;17.80;99.90
59651;DHT22;45954;49.768;8.636;2023-09-30T07:46:53;17.90;99.90
59651;DHT22;45954;49.768;8.636;2023-09-30T07:49:19;17.70;99.90
59651;DHT22;45954;49.768;8.636;2023-09-30T07:51:45;17.70;99.90
59651;DHT22;45954;49.768;8.636;2023-09-30T07:54:12;17.40;99.90
59651;DHT22;45954;49.768;8.636;2023-09-30T07:56:38;17.50;99.90
59651;DHT22;45954;49.768;8.636;2023-09-30T07:59:04;17.60;99.90
59651;DHT22;45954;49.768;8.636;2023-09-30T08:01:31;17.90;99.90
59651;DHT22;45954;49.768;8.636;2023-09-30T08:03:57;18.20;99.90
59651;DHT22;45954;49.768;8.636;2023-09-30T08:06:23;17.90;99.90
59651;DHT22;45954;49.768;8.636;2023-09-30T08:08:51;17.90;99.90
59651;DHT22;45954;49.768;8.636;2023-09-30T08:11:21;18.00;99.90
59651;DHT22;45954;49.768;8.636;2023-09-30T08:13:47;18.00;99.90
59651;DHT22;45954;49.768;8.636;2023-09-30T08:16:13;17.80;99.90
59651;DHT22;45954;49.768;8.636;2023-09-30T08:18:39;17.60;99.90
59651;DHT22;45954;49.768;8.636;2023-09-30T08:21:09;17.60;99.90
59651;DHT22;45954;49.768;8.636;2023-09-30T08:23:37;17.30;99.90
59651;DHT22;45954;49.768;8.636;2023-09-30T08:26:05;17.50;99.90
59651;DHT22;45954;49.768;8.636;2023-09-30T08:28:32;18.10;99.90
59651;DHT22;45954;49.768;8.636;2023-09-30T08:31:05;18.50;99.90
59651;DHT22;45954;49.768;8.636;2023-09-30T08:33:34;18.80;99.90
59651;DHT22;45954;49.768;8.636;2023-09-30T08:36:06;18.20;99.90
59651;DHT22;45954;49.768;8.636;2023-09-30T08:38:37;18.10;99.90
59651;DHT22;45954;49.768;8.636;2023-09-30T08:41:04;18.60;99.90
59651;DHT22;45954;49.768;8.636;2023-09-30T08:43:31;18.30;99.90
59651;DHT22;45954;49.768;8.636;2023-09-30T08:46:04;18.40;99.90
59651;DHT22;45954;49.768;8.636;2023-09-30T08:48:33;18.30;99.90
59651;DHT22;45954;49.768;8.636;2023-09-30T08:51:00;18.50;99.90
59651;DHT22;45954;49.768;8.636;2023-09-30T08:53:27;18.30;99.90
59651;DHT22;45954;49.768;8.636;2023-09-30T08:55:55;18.40;99.90
59651;DHT22;45954;49.768;8.636;2023-09-30T08:58:28;18.50;99.90
59651;DHT22;45954;49.768;8.636;2023-09-30T09:00:55;18.60;99.90
59651;DHT22;45954;49.768;8.636;2023-09-30T09:03:22;18.50;99.90
59651;DHT22;45954;49.768;8.636;2023-09-30T09:05:55;18.60;99.90
59651;DHT22;45954;49.768;8.636;2023-09-30T09:08:23;18.90;99.90
59651;DHT22;45954;49.768;8.636;2023-09-30T09:10:59;18.60;99.90
59651;DHT22;45954;49.768;8.636;2023-09-30T09:13:27;18.50;99.90
59651;DHT22;45954;49.768;8.636;2023-09-30T09:16:09;18.60;99.90
59651;DHT22;45954;49.768;8.636;2023-09-30T09:18:35;18.80;99.90
59651;DHT22;45954;49.768;8.636;2023-09-30T09:23:45;19.60;99.90
59651;DHT22;45954;49.768;8.636;2023-09-30T09:26:28;19.50;99.90
59651;DHT22;45954;49.768;8.636;2023-09-30T09:29:00;19.60;99.90
59651;DHT22;45954;49.768;8.636;2023-09-30T09:31:33;19.20;99.90
59651;DHT22;45954;49.768;8.636;2023-09-30T09:34:02;19.70;99.90
59651;DHT22;45954;49.768;8.636;2023-09-30T09:36:43;20.20;99.90
59651;DHT22;45954;49.768;8.636;2023-09-30T09:39:11;20.50;99.60
59651;DHT22;45954;49.768;8.636;2023-09-30T09:41:59;19.70;99.70
59651;DHT22;45954;49.768;8.636;2023-09-30T09:44:27;19.60;99.50
59651;DHT22;45954;49.768;8.636;2023-09-30T09:46:53;19.30;99.40
59651;DHT22;45954;49.768;8.636;2023-09-30T09:49:20;19.70;99.90
59651;DHT22;45954;49.768;8.636;2023-09-30T09:51:48;20.20;99.90
59651;DHT22;45954;49.768;8.636;2023-09-30T09:54:15;20.60;99.30
59651;DHT22;45954;49.768;8.636;2023-09-30T09:56:44;20.60;97.80
59651;DHT22;45954;49.768;8.636;2023-09-30T09:59:12;20.10;98.00
59651;DHT22;45954;49.768;8.636;2023-09-30T10:01:42;20.20;97.80
59651;DHT22;45954;49.768;8.636;2023-09-30T10:04:11;20.20;98.00
59651;DHT22;45954;49.768;8.636;2023-09-30T10:06:37;20.50;98.20
59651;DHT22;45954;49.768;8.636;2023-09-30T10:09:10;20.70;97.50
59651;DHT22;45954;49.768;8.636;2023-09-30T10:11:38;20.20;97.40
59651;DHT22;45954;49.768;8.636;2023-09-30T10:14:05;20.30;97.30
59651;DHT22;45954;49.768;8.636;2023-09-30T10:21:40;20.50;97.70
59651;DHT22;45954;49.768;8.636;2023-09-30T10:24:57;21.10;98.80
59651;DHT22;45954;49.768;8.636;2023-09-30T10:40:48;20.90;96.40
59651;DHT22;45954;49.768;8.636;2023-09-30T10:43:32;21.50;97.50
59651;DHT22;45954;49.768;8.636;2023-09-30T10:46:02;21.00;97.60
59651;DHT22;45954;49.768;8.636;2023-09-30T10:48:33;20.50;95.50
59651;DHT22;45954;49.768;8.636;2023-09-30T10:51:21;20.70;96.70
59651;DHT22;45954;49.768;8.636;2023-09-30T10:53:49;21.30;96.10
59651;DHT22;45954;49.768;8.636;2023-09-30T10:56:23;21.40;95.20
59651;DHT22;45954;49.768;8.636;2023-09-30T10:58:53;21.70;95.20
59651;DHT22;45954;49.768;8.636;2023-09-30T11:01:21;20.70;94.90
59651;DHT22;45954;49.768;8.636;2023-09-30T11:03:49;20.80;95.40
59651;DHT22;45954;49.768;8.636;2023-09-30T11:06:18;20.70;95.10
59651;DHT22;45954;49.768;8.636;2023-09-30T11:08:57;20.90;95.40
59651;DHT22;45954;49.768;8.636;2023-09-30T11:16:53;21.40;95.30
59651;DHT22;45954;49.768;8.636;2023-09-30T11:19:21;21.60;95.00
59651;DHT22;45954;49.768;8.636;2023-09-30T11:21:52;22.20;96.00
59651;DHT22;45954;49.768;8.636;2023-09-30T11:24:20;22.40;94.00
59651;DHT22;45954;49.768;8.636;2023-09-30T11:26:50;22.90;94.40
59651;DHT22;45954;49.768;8.636;2023-09-30T11:29:18;22.50;93.80
59651;DHT22;45954;49.768;8.636;2023-09-30T11:31:46;22.70;94.10
59651;DHT22;45954;49.768;8.636;2023-09-30T11:34:15;22.40;93.60
59651;DHT22;45954;49.768;8.636;2023-09-30T11:36:52;22.10;92.80
59651;DHT22;45954;49.768;8.636;2023-09-30T11:39:31;21.90;93.70
59651;DHT22;45954;49.768;8.636;2023-09-30T11:41:57;21.30;93.50
59651;DHT22;45954;49.768;8.636;2023-09-30T11:44:24;21.10;93.70
59651;DHT22;45954;49.768;8.636;2023-09-30T11:51:59;21.50;93.90
59651;DHT22;45954;49.768;8.636;2023-09-30T11:54:39;21.50;93.70
59651;DHT22;45954;49.768;8.636;2023-09-30T11:57:10;22.20;93.40
59651;DHT22;45954;49.768;8.636;2023-09-30T11:59:41;22.50;94.00
59651;DHT22;45954;49.768;8.636;2023-09-30T12:02:14;23.00;92.30
59651;DHT22;45954;49.768;8.636;2023-09-30T12:04:43;23.00;93.00
59651;DHT22;45954;49.768;8.636;2023-09-30T12:07:09;23.10;92.50
59651;DHT22;45954;49.768;8.636;2023-09-30T12:09:35;23.10;92.30
59651;DHT22;45954;49.768;8.636;2023-09-30T12:12:03;23.10;92.30
59651;DHT22;45954;49.768;8.636;2023-09-30T12:14:30;23.10;91.80
59651;DHT22;45954;49.768;8.636;2023-09-30T12:16:57;23.00;91.70
59651;DHT22;45954;49.768;8.636;2023-09-30T12:19:23;22.50;91.50
59651;DHT22;45954;49.768;8.636;2023-09-30T12:21:52;22.80;91.90
59651;DHT22;45954;49.768;8.636;2023-09-30T12:24:19;22.00;91.90
59651;DHT22;45954;49.768;8.636;2023-09-30T12:26:48;22.40;92.00
59651;DHT22;45954;49.768;8.636;2023-09-30T12:29:15;23.10;92.00
59651;DHT22;45954;49.768;8.636;2023-09-30T12:31:46;23.40;91.30
59651;DHT22;45954;49.768;8.636;2023-09-30T12:34:13;23.00;91.20
59651;DHT22;45954;49.768;8.636;2023-09-30T12:36:39;23.20;91.10
59651;DHT22;45954;49.768;8.636;2023-09-30T12:39:06;23.80;91.80
59651;DHT22;45954;49.768;8.636;2023-09-30T12:41:40;23.20;91.10
59651;DHT22;45954;49.768;8.636;2023-09-30T12:44:07;23.10;90.80
59651;DHT22;45954;49.768;8.636;2023-09-30T12:46:34;22.40;91.10
59651;DHT22;45954;49.768;8.636;2023-09-30T12:49:08;23.00;92.00
59651;DHT22;45954;49.768;8.636;2023-09-30T12:51:35;22.70;91.50
59651;DHT22;45954;49.768;8.636;2023-09-30T12:54:02;22.40;91.70
59651;DHT22;45954;49.768;8.636;2023-09-30T12:56:28;23.20;91.70
59651;DHT22;45954;49.768;8.636;2023-09-30T12:58:58;23.30;90.20
59651;DHT22;45954;49.768;8.636;2023-09-30T13:01:25;23.30;90.70
59651;DHT22;45954;49.768;8.636;2023-09-30T13:03:51;24.10;90.10
59651;DHT22;45954;49.768;8.636;2023-09-30T13:06:18;24.30;88.00
59651;DHT22;45954;49.768;8.636;2023-09-30T13:08:46;23.60;90.20
59651;DHT22;45954;49.768;8.636;2023-09-30T13:11:13;23.40;90.90
59651;DHT22;45954;49.768;8.636;2023-09-30T13:13:40;24.60;90.90
59651;DHT22;45954;49.768;8.636;2023-09-30T13:16:06;24.80;90.00
59651;DHT22;45954;49.768;8.636;2023-09-30T13:18:33;24.80;89.60
59651;DHT22;45954;49.768;8.636;2023-09-30T13:20:59;24.50;89.70
59651;DHT22;45954;49.768;8.636;2023-09-30T13:23:25;24.90;90.20
59651;DHT22;45954;49.768;8.636;2023-09-30T13:25:53;25.00;90.00
59651;DHT22;45954;49.768;8.636;2023-09-30T13:28:19;25.00;89.40
59651;DHT22;45954;49.768;8.636;2023-09-30T13:30:45;24.90;90.00
59651;DHT22;45954;49.768;8.636;2023-09-30T13:33:11;24.20;89.90
59651;DHT22;45954;49.768;8.636;2023-09-30T13:35:37;23.90;89.70
59651;DHT22;45954;49.768;8.636;2023-09-30T13:38:03;23.90;90.40
59651;DHT22;45954;49.768;8.636;2023-09-30T13:40:29;24.50;87.90
59651;DHT22;45954;49.768;8.636;2023-09-30T13:42:55;23.80;86.80
59651;DHT22;45954;49.768;8.636;2023-09-30T13:45:23;23.40;88.30
59651;DHT22;45954;49.768;8.636;2023-09-30T13:47:49;23.50;88.30
59651;DHT22;45954;49.768;8.636;2023-09-30T13:50:15;23.40;89.30
59651;DHT22;45954;49.768;8.636;2023-09-30T13:52:41;24.00;88.80
59651;DHT22;45954;49.768;8.636;2023-09-30T13:55:07;24.40;88.40
59651;DHT22;45954;49.768;8.636;2023-09-30T13:57:34;24.90;87.90
59651;DHT22;45954;49.768;8.636;2023-09-30T14:00:04;25.40;86.20
59651;DHT22;45954;49.768;8.636;2023-09-30T14:02:32;25.90;86.80
59651;DHT22;45954;49.768;8.636;2023-09-30T14:04:58;25.20;85.50
59651;DHT22;45954;49.768;8.636;2023-09-30T14:07:24;24.70;87.70
59651;DHT22;45954;49.768;8.636;2023-09-30T14:09:51;25.20;88.20
59651;DHT22;45954;49.768;8.636;2023-09-30T14:12:18;25.80;87.80
59651;DHT22;45954;49.768;8.636;2023-09-30T14:14:44;26.30;86.40
59651;DHT22;45954;49.768;8.636;2023-09-30T14:17:10;26.00;85.70
59651;DHT22;45954;49.768;8.636;2023-09-30T14:19:39;26.40;85.40
59651;DHT22;45954;49.768;8.636;2023-09-30T14:22:06;26.00;86.90
59651;DHT22;45954;49.768;8.636;2023-09-30T14:24:34;26.20;87.40
59651;DHT22;45954;49.768;8.636;2023-09-30T14:27:02;25.60;85.00
59651;DHT22;45954;49.768;8.636;2023-09-30T14:29:29;26.10;84.20
59651;DHT22;45954;49.768;8.636;2023-09-30T14:31:56;25.90;84.60
59651;DHT22;45954;49.768;8.636;2023-09-30T14:34:23;25.20;88.10
59651;DHT22;45954;49.768;8.636;2023-09-30T14:36:50;25.40;87.20
59651;DHT22;45954;49.768;8.636;2023-09-30T14:39:17;24.90;87.20
59651;DHT22;45954;49.768;8.636;2023-09-30T14:41:46;24.30;85.50
59651;DHT22;45954;49.768;8.636;2023-09-30T14:44:12;23.80;86.20
59651;DHT22;45954;49.768;8.636;2023-09-30T14:46:38;24.40;86.40
59651;DHT22;45954;49.768;8.636;2023-09-30T14:49:05;25.00;86.30
59651;DHT22;45954;49.768;8.636;2023-09-30T14:51:37;25.90;84.90
59651;DHT22;45954;49.768;8.636;2023-09-30T14:54:03;26.10;85.90
59651;DHT22;45954;49.768;8.636;2023-09-30T14:56:31;25.90;86.00
59651;DHT22;45954;49.768;8.636;2023-09-30T14:58:57;24.80;85.90
59651;DHT22;45954;49.768;8.636;2023-09-30T15:01:23;24.00;88.00
59651;DHT22;45954;49.768;8.636;2023-09-30T15:03:49;23.70;89.50
59651;DHT22;45954;49.768;8.636;2023-09-30T15:06:15;23.60;88.30
59651;DHT22;45954;49.768;8.636;2023-09-30T15:08:41;23.40;90.40
59651;DHT22;45954;49.768;8.636;2023-09-30T15:11:13;23.40;90.30
59651;DHT22;45954;49.768;8.636;2023-09-30T15:13:42;23.30;90.10
59651;DHT22;45954;49.768;8.636;2023-09-30T15:16:18;23.10;89.70
59651;DHT22;45954;49.768;8.636;2023-09-30T15:18:46;22.90;90.30
59651;DHT22;45954;49.768;8.636;2023-09-30T15:21:13;22.90;91.30
59651;DHT22;45954;49.768;8.636;2023-09-30T15:23:40;22.80;90.90
59651;DHT22;45954;49.768;8.636;2023-09-30T15:26:07;22.50;91.30
59651;DHT22;45954;49.768;8.636;2023-09-30T15:28:32;22.50;90.80
59651;DHT22;45954;49.768;8.636;2023-09-30T15:30:58;22.30;91.90
59651;DHT22;45954;49.768;8.636;2023-09-30T15:33:27;22.20;92.10
59651;DHT22;45954;49.768;8.636;2023-09-30T15:35:53;22.10;92.60
59651;DHT22;45954;49.768;8.636;2023-09-30T15:38:19;22.10;92.10
59651;DHT22;45954;49.768;8.636;2023-09-30T15:40:56;22.10;91.90
59651;DHT22;45954;49.768;8.636;2023-09-30T15:43:24;22.10;92.20
59651;DHT22;45954;49.768;8.636;2023-09-30T15:45:50;22.10;92.60
59651;DHT22;45954;49.768;8.636;2023-09-30T15:48:17;22.00;92.10
59651;DHT22;45954;49.768;8.636;2023-09-30T15:50:43;22.00;91.80
59651;DHT22;45954;49.768;8.636;2023-09-30T15:53:09;21.80;91.90
59651;DHT22;45954;49.768;8.636;2023-09-30T15:55:35;21.70;92.50
59651;DHT22;45954;49.768;8.636;2023-09-30T15:58:01;21.80;93.50
59651;DHT22;45954;49.768;8.636;2023-09-30T16:00:27;21.70;93.40
59651;DHT22;45954;49.768;8.636;2023-09-30T16:02:53;21.80;94.20
59651;DHT22;45954;49.768;8.636;2023-09-30T16:05:19;21.90;94.50
59651;DHT22;45954;49.768;8.636;2023-09-30T16:07:44;21.70;94.40